St M-d-napiervil

CMSX · Quebec, 加拿大

使用的METAR站距离机场18 NM。
罗盘
风向 的 风向 250°
风: 4 kt, 2 beaufort

添加一条跑道以查看侧风和逆风信息。

添置 跑道
0 ft 6.000 12.000 18.000 24.000 30.000
Cloud Cloud Cloud Cloud Cloud Cloud
BKN 25.000
METAR CYUL 181100Z 25004KT 15SM BKN250 23/19 A3012 RMK CI5 SLP200 DENSITY ALT 900FT

METAR St M-d-napiervil - CMSX

St M-d-napiervil是,加拿大中的未知。 该机场位于纬度45,18333和经度-73,61667。 本场的ICAO机场代码为CMSX。 机场在Montreal FIR中。

该航空气象观测是针对蒙特利尔皮埃尔·埃利奥特·特鲁多国际机场在2024年6月18日 07:00, 当地时间进行的。

机场观察

风向为250°,速度为4 kt。

可见度为15 mi。

有碎云在25.000 ft的高度。 破损或更高的上限为25.000 ft。

温度和风寒是23 °C。 露点为19 °C,相对湿度为78%。 海平面上的气压为30,12 inHg (QNH)。

白天

今天,太阳从05:06升起,在20:44降落。 这适用于St M-d-napiervil,世界夏令时可能有所不同。 当地时间与世界标准时间之间的时差为-4 小时。 夏令时目前正在进行中。

公司介绍

我们没有关于这个机场的公司信息。

体会

到Vliegles.nl去找飞行课程,跳伞和其他飞行体验。 浏览页面,了解St M-d-napiervil附近所有可用的活动。 你也可以使用搜索功能来寻找你所在地附近的特定飞行课程、跳伞或其他飞行体验。

乌云

25.000 ft BKN 碎云

温度 & 天气

温度 23 °C
露点 19 °C
相对湿度 78%
Kp-index 2 (0-9)

评论

SLP200海平面压力为30,12 inHg (30,12 inHg)
CI5 DENSITY ALT 900FT

白天

日出
05:05
中午
12:56
日落
20:46 (13:13)

小工具

你想在你的网站上有一个关于St M-d-napiervil的当前航空天气(METAR)的小部件吗?

显示HTML代码
报告变更